createdAt,value
2019-06-20T00:00:38.150Z,19.58
2019-06-20T00:03:06.747Z,19.88
2019-06-20T00:05:38.288Z,19.88
2019-06-20T00:08:06.727Z,20.04
2019-06-20T00:10:35.178Z,20.21
2019-06-20T00:13:04.000Z,20.26
2019-06-20T00:15:32.444Z,20.36
2019-06-20T00:18:00.858Z,20.52
2019-06-20T00:20:29.331Z,20.46
2019-06-20T00:22:57.797Z,20.39
2019-06-20T00:25:26.304Z,20.58
2019-06-20T00:27:54.798Z,20.43
2019-06-20T00:30:23.198Z,20.22
2019-06-20T00:32:51.629Z,20.06
2019-06-20T00:35:20.049Z,19.88
2019-06-20T00:37:48.503Z,19.64
2019-06-20T00:40:17.281Z,19.64
2019-06-20T00:42:45.715Z,19.50
2019-06-20T00:45:14.485Z,19.25
2019-06-20T00:47:42.934Z,19.07
2019-06-20T00:50:11.827Z,19.00
2019-06-20T00:52:40.233Z,19.05
2019-06-20T00:55:08.811Z,18.85
2019-06-20T00:57:37.319Z,18.73
2019-06-20T01:00:08.066Z,18.78
2019-06-20T01:02:36.512Z,18.77
2019-06-20T01:05:08.808Z,18.67
2019-06-20T01:07:37.251Z,18.67
2019-06-20T01:10:09.151Z,18.72
2019-06-20T01:12:37.564Z,18.43
2019-06-20T01:15:07.940Z,18.45
2019-06-20T01:17:36.552Z,18.43
2019-06-20T01:20:07.171Z,18.42
2019-06-20T01:22:35.625Z,18.44
2019-06-20T01:25:06.096Z,18.50
2019-06-20T01:27:34.774Z,18.60
2019-06-20T01:30:03.662Z,18.64
2019-06-20T01:32:32.098Z,18.57
2019-06-20T01:35:00.507Z,18.52
2019-06-20T01:37:28.966Z,18.50
2019-06-20T01:39:57.425Z,18.40
2019-06-20T01:42:25.871Z,18.32
2019-06-20T01:44:54.289Z,18.23
2019-06-20T01:47:22.869Z,18.12
2019-06-20T01:49:51.320Z,18.02
2019-06-20T01:52:19.764Z,17.97
2019-06-20T01:54:48.213Z,17.93
2019-06-20T01:57:16.656Z,17.88
2019-06-20T01:59:45.079Z,17.95
2019-06-20T02:02:13.529Z,18.20
2019-06-20T02:04:41.987Z,18.27
2019-06-20T02:07:10.422Z,18.33
2019-06-20T02:09:38.906Z,18.35
2019-06-20T02:12:07.388Z,18.29
2019-06-20T02:14:35.844Z,18.29
2019-06-20T02:17:04.387Z,18.29
2019-06-20T02:19:32.836Z,18.31
2019-06-20T02:22:01.373Z,18.43
2019-06-20T02:24:32.833Z,18.47
2019-06-20T02:27:01.528Z,18.43
2019-06-20T02:29:30.068Z,18.25
2019-06-20T02:31:58.540Z,18.34
2019-06-20T02:34:26.986Z,18.46
2019-06-20T02:36:55.424Z,18.40
2019-06-20T02:39:26.003Z,18.42
2019-06-20T02:41:54.441Z,18.46
2019-06-20T02:44:29.941Z,18.55
2019-06-20T02:46:53.059Z,18.55
2019-06-20T02:49:21.521Z,18.63
2019-06-20T02:51:50.497Z,18.52
2019-06-20T02:54:19.092Z,18.55
2019-06-20T02:56:47.510Z,18.76
2019-06-20T02:59:15.988Z,18.71
2019-06-20T03:01:44.449Z,18.79
2019-06-20T03:04:12.878Z,18.72
2019-06-20T03:06:41.495Z,18.70
2019-06-20T03:09:09.943Z,18.62
2019-06-20T03:11:38.377Z,18.51
2019-06-20T03:14:09.852Z,18.66
2019-06-20T03:16:38.306Z,18.62
2019-06-20T03:19:06.783Z,18.62
2019-06-20T03:21:35.181Z,18.79
2019-06-20T03:24:03.640Z,18.74
2019-06-20T03:26:32.085Z,18.66
2019-06-20T03:29:00.558Z,18.68
2019-06-20T03:31:29.013Z,18.71
2019-06-20T03:33:57.500Z,18.75
2019-06-20T03:36:25.919Z,18.59
2019-06-20T03:38:54.378Z,18.54
2019-06-20T03:41:22.912Z,18.80
2019-06-20T03:43:53.911Z,18.90
2019-06-20T03:46:22.326Z,18.84
2019-06-20T03:48:50.764Z,18.94
2019-06-20T03:51:19.176Z,19.00
2019-06-20T03:53:47.606Z,18.85
2019-06-20T03:56:17.699Z,19.15
2019-06-20T03:58:46.142Z,18.99
2019-06-20T04:01:14.590Z,19.01
2019-06-20T04:03:43.002Z,19.02
2019-06-20T04:06:11.516Z,19.09
2019-06-20T04:08:40.042Z,19.08
2019-06-20T04:11:09.984Z,19.23
2019-06-20T04:13:38.421Z,19.37
2019-06-20T04:16:08.501Z,19.35
2019-06-20T04:18:37.135Z,19.34
2019-06-20T04:21:05.668Z,19.36
2019-06-20T04:23:34.102Z,19.48
2019-06-20T04:26:02.561Z,19.51
2019-06-20T04:28:31.017Z,19.56
2019-06-20T04:31:01.280Z,19.44
2019-06-20T04:33:29.702Z,19.32
2019-06-20T04:35:58.146Z,19.28
2019-06-20T04:38:26.568Z,19.21
2019-06-20T04:40:55.030Z,19.20
2019-06-20T04:43:23.534Z,19.27
2019-06-20T04:45:56.384Z,19.33
2019-06-20T04:48:27.534Z,19.58
2019-06-20T04:50:55.952Z,19.57
2019-06-20T04:53:24.504Z,19.53
2019-06-20T04:55:52.943Z,19.52
2019-06-20T05:01:12.724Z,19.63
2019-06-20T05:03:41.174Z,19.77
2019-06-20T05:06:09.614Z,20.14
2019-06-20T05:08:40.000Z,20.26
2019-06-20T05:11:08.396Z,20.53
2019-06-20T05:13:36.886Z,21.00
2019-06-20T05:16:05.374Z,21.33
2019-06-20T05:18:33.823Z,21.38
2019-06-20T05:21:02.244Z,21.87
2019-06-20T05:23:30.678Z,22.75
2019-06-20T05:25:59.196Z,23.35
2019-06-20T05:28:27.657Z,23.29
2019-06-20T05:30:56.357Z,22.94
2019-06-20T05:33:28.803Z,22.35
2019-06-20T05:35:57.273Z,21.80
2019-06-20T05:38:25.699Z,21.32
2019-06-20T05:40:54.182Z,20.84
2019-06-20T05:43:22.573Z,21.04
2019-06-20T05:45:51.050Z,21.08
2019-06-20T05:48:19.488Z,21.16
2019-06-20T05:50:48.635Z,20.89
2019-06-20T05:53:17.135Z,20.87
2019-06-20T05:55:45.624Z,20.85
2019-06-20T05:58:14.036Z,20.66
2019-06-20T06:00:42.521Z,20.78
2019-06-20T06:03:13.661Z,20.69
2019-06-20T06:05:41.210Z,20.70
2019-06-20T06:08:09.685Z,20.72
2019-06-20T06:10:38.086Z,20.78
2019-06-20T06:13:06.518Z,20.69
2019-06-20T06:15:35.015Z,20.22
2019-06-20T06:18:03.446Z,20.11
2019-06-20T06:20:31.893Z,20.14
2019-06-20T06:23:00.478Z,20.14
2019-06-20T06:25:29.073Z,20.25
2019-06-20T06:28:00.334Z,20.43
2019-06-20T06:30:30.313Z,20.41
2019-06-20T06:33:01.644Z,20.56
2019-06-20T06:35:30.465Z,20.69
2019-06-20T06:38:01.720Z,21.46
2019-06-20T06:40:30.647Z,22.13
2019-06-20T06:42:59.152Z,22.63
2019-06-20T06:45:29.186Z,23.32
2019-06-20T06:47:58.669Z,23.83
2019-06-20T06:50:30.432Z,23.94
2019-06-20T06:52:58.931Z,23.08
2019-06-20T06:55:27.920Z,22.71
2019-06-20T06:57:59.303Z,22.21
2019-06-20T07:00:29.177Z,21.65
2019-06-20T07:02:57.611Z,21.29
2019-06-20T07:05:27.483Z,21.31
2019-06-20T07:07:59.620Z,21.39
2019-06-20T07:10:28.339Z,21.16
2019-06-20T07:12:56.819Z,21.42
2019-06-20T07:15:26.996Z,21.14
2019-06-20T07:17:55.576Z,21.09
2019-06-20T07:20:28.661Z,21.10
2019-06-20T07:22:58.702Z,21.00
2019-06-20T07:25:41.344Z,20.85
2019-06-20T07:28:13.128Z,20.75
2019-06-20T07:30:41.957Z,20.74
2019-06-20T07:33:17.950Z,20.47
2019-06-20T07:35:46.626Z,20.55
2019-06-20T07:38:22.943Z,20.89
2019-06-20T07:40:56.483Z,20.90
2019-06-20T07:43:31.465Z,21.19
2019-06-20T07:46:03.031Z,21.19
2019-06-20T07:48:32.232Z,21.25
2019-06-20T07:51:01.003Z,21.24
2019-06-20T07:53:34.011Z,21.44
2019-06-20T07:56:02.609Z,21.40
2019-06-20T07:58:32.773Z,21.58
2019-06-20T08:01:12.896Z,21.78
2019-06-20T08:03:36.953Z,21.96
2019-06-20T08:06:05.438Z,22.57
2019-06-20T08:08:35.670Z,23.03
2019-06-20T08:11:04.384Z,23.16
2019-06-20T08:13:32.993Z,23.20
2019-06-20T08:16:03.791Z,23.16
2019-06-20T08:18:31.698Z,23.52
2019-06-20T08:21:00.128Z,23.77
2019-06-20T08:23:28.561Z,24.08
2019-06-20T08:25:57.526Z,24.00
2019-06-20T08:28:27.824Z,23.53
2019-06-20T08:30:57.374Z,23.67
2019-06-20T08:33:26.823Z,23.69
2019-06-20T08:35:56.966Z,23.59
2019-06-20T08:38:25.474Z,23.78
2019-06-20T08:40:54.003Z,23.84
2019-06-20T08:43:22.423Z,23.66
2019-06-20T08:45:50.857Z,23.98
2019-06-20T08:48:19.326Z,23.85
2019-06-20T08:50:47.738Z,24.12
2019-06-20T08:53:16.318Z,23.81
2019-06-20T08:55:44.796Z,23.49
2019-06-20T08:58:13.236Z,23.32
2019-06-20T09:00:41.899Z,23.44
2019-06-20T09:03:10.645Z,23.97
2019-06-20T09:05:39.066Z,24.53
2019-06-20T09:08:11.215Z,25.11
2019-06-20T09:10:40.187Z,25.83
2019-06-20T09:13:09.882Z,26.13
2019-06-20T09:15:38.532Z,25.83
2019-06-20T09:18:07.780Z,25.57
2019-06-20T09:20:36.722Z,25.42
2019-06-20T09:23:05.750Z,24.89
2019-06-20T09:25:34.399Z,24.72
2019-06-20T09:28:03.226Z,24.71
2019-06-20T09:30:31.882Z,24.72
2019-06-20T09:33:00.293Z,24.36
2019-06-20T09:35:28.719Z,24.43
2019-06-20T09:37:57.423Z,24.66
2019-06-20T09:40:26.022Z,25.22
2019-06-20T09:42:54.553Z,25.63
2019-06-20T09:45:23.548Z,25.47
2019-06-20T09:47:52.236Z,25.67
2019-06-20T09:50:21.329Z,26.26
2019-06-20T09:52:51.387Z,26.64
2019-06-20T09:55:20.163Z,26.75
2019-06-20T09:57:50.257Z,26.67
2019-06-20T10:00:21.838Z,26.63
2019-06-20T10:02:51.793Z,26.89
2019-06-20T10:05:20.681Z,27.17
2019-06-20T10:07:50.273Z,26.81
2019-06-20T10:10:19.223Z,27.03
2019-06-20T10:12:47.959Z,26.93
2019-06-20T10:15:25.459Z,26.63
2019-06-20T10:17:54.509Z,26.61
2019-06-20T10:20:23.838Z,26.64
2019-06-20T10:22:53.124Z,26.48
2019-06-20T10:25:21.848Z,26.37
2019-06-20T10:27:51.397Z,25.95
2019-06-20T10:30:22.131Z,25.84
2019-06-20T10:32:51.097Z,25.51
2019-06-20T10:35:20.048Z,25.50
2019-06-20T10:37:48.628Z,25.67
2019-06-20T10:40:18.693Z,25.33
2019-06-20T10:42:48.089Z,25.15
2019-06-20T10:45:19.271Z,25.39
2019-06-20T10:47:48.979Z,26.15
2019-06-20T10:50:19.323Z,26.60
2019-06-20T10:52:48.169Z,26.75
2019-06-20T10:55:17.511Z,27.39
2019-06-20T10:57:46.773Z,27.30
2019-06-20T11:00:29.707Z,27.82
2019-06-20T11:02:47.061Z,28.09
2019-06-20T11:05:17.253Z,27.35
2019-06-20T11:07:45.762Z,27.25
2019-06-20T11:10:16.284Z,26.78
2019-06-20T11:12:52.239Z,26.82
2019-06-20T11:15:15.693Z,26.38
2019-06-20T11:17:44.314Z,26.52
2019-06-20T11:20:13.282Z,26.91
2019-06-20T11:22:43.342Z,26.96
2019-06-20T11:25:18.974Z,27.07
2019-06-20T11:27:47.317Z,26.82
2019-06-20T11:30:24.350Z,27.07
2019-06-20T11:32:52.780Z,26.28
2019-06-20T11:35:21.207Z,26.34
2019-06-20T11:37:49.637Z,26.02
2019-06-20T11:40:18.548Z,26.28
2019-06-20T11:42:47.067Z,26.51
2019-06-20T11:45:17.480Z,26.12
2019-06-20T11:47:47.321Z,26.38
2019-06-20T11:50:16.932Z,26.35
2019-06-20T11:52:45.993Z,26.18
2019-06-20T11:55:15.729Z,26.42
2019-06-20T11:57:44.327Z,26.75
2019-06-20T12:00:13.676Z,26.46
2019-06-20T12:02:43.956Z,26.55
2019-06-20T12:05:13.805Z,26.68
2019-06-20T12:07:43.701Z,27.12
2019-06-20T12:10:14.339Z,27.33
2019-06-20T12:12:42.783Z,27.71
2019-06-20T12:15:11.946Z,27.91
2019-06-20T12:17:41.721Z,27.76
2019-06-20T12:20:12.610Z,27.79
2019-06-20T12:22:41.729Z,27.92
2019-06-20T12:25:13.132Z,28.37
2019-06-20T12:27:42.962Z,28.25
2019-06-20T12:30:14.033Z,28.39
2019-06-20T12:32:42.594Z,28.33
2019-06-20T12:35:11.741Z,28.15
2019-06-20T12:37:40.580Z,28.40
2019-06-20T12:40:11.616Z,28.67
2019-06-20T12:42:41.803Z,28.56
2019-06-20T12:45:11.888Z,27.89
2019-06-20T12:47:41.790Z,28.05
2019-06-20T12:50:10.772Z,28.08
2019-06-20T12:52:42.628Z,28.14
2019-06-20T12:55:12.219Z,27.84
2019-06-20T12:57:42.136Z,27.85
2019-06-20T13:00:12.370Z,28.00
2019-06-20T13:02:41.949Z,27.90
2019-06-20T13:05:11.650Z,28.12
2019-06-20T13:07:40.699Z,28.47
2019-06-20T13:10:11.174Z,28.69
2019-06-20T13:12:42.696Z,28.93
2019-06-20T13:15:13.151Z,29.05
2019-06-20T13:17:43.619Z,29.30
2019-06-20T13:20:16.050Z,29.23
2019-06-20T13:22:49.347Z,29.52
2019-06-20T13:25:17.437Z,29.97
2019-06-20T13:27:45.997Z,30.03
2019-06-20T13:30:14.914Z,30.15
2019-06-20T13:32:45.229Z,30.18
2019-06-20T13:35:14.386Z,29.70
2019-06-20T13:37:43.483Z,29.65
2019-06-20T13:40:13.547Z,28.99
2019-06-20T13:42:43.947Z,28.82
2019-06-20T13:45:15.274Z,29.08
2019-06-20T13:47:43.724Z,29.02
2019-06-20T13:50:12.297Z,28.33
2019-06-20T13:52:43.544Z,28.79
2019-06-20T13:55:10.938Z,28.41
2019-06-20T13:57:41.218Z,28.98
2019-06-20T14:00:10.893Z,28.80
2019-06-20T14:02:41.041Z,28.69
2019-06-20T14:05:10.348Z,28.64
2019-06-20T14:07:48.316Z,28.71
2019-06-20T14:10:19.438Z,28.69
2019-06-20T14:12:48.772Z,29.13
2019-06-20T14:15:18.715Z,29.04
2019-06-20T14:17:47.487Z,28.81
2019-06-20T14:20:18.545Z,28.44
2019-06-20T14:22:46.947Z,28.61
2019-06-20T14:25:15.780Z,28.34
2019-06-20T14:27:46.041Z,28.48
2019-06-20T14:30:16.705Z,28.88
2019-06-20T14:32:47.487Z,29.01
2019-06-20T14:35:16.081Z,29.47
2019-06-20T14:37:46.100Z,29.50
2019-06-20T14:40:15.900Z,29.59
2019-06-20T14:42:46.004Z,29.53
2019-06-20T14:45:15.188Z,29.38
2019-06-20T14:47:43.845Z,28.84
2019-06-20T14:50:20.346Z,28.25
2019-06-20T14:52:50.032Z,28.31
2019-06-20T14:55:19.278Z,28.53
2019-06-20T14:57:48.520Z,28.72
2019-06-20T15:00:18.616Z,28.97
2019-06-20T15:02:48.019Z,28.72
2019-06-20T15:05:24.524Z,28.77
2019-06-20T15:07:57.358Z,28.76
2019-06-20T15:10:25.736Z,28.74
2019-06-20T15:13:04.482Z,28.92
2019-06-20T15:15:32.885Z,28.97
2019-06-20T15:18:01.312Z,28.99
2019-06-20T15:20:29.736Z,29.24
2019-06-20T15:22:58.154Z,29.03
2019-06-20T15:25:26.694Z,29.18
2019-06-20T15:27:55.793Z,29.02
2019-06-20T15:30:25.547Z,28.65
2019-06-20T15:33:05.798Z,28.32
2019-06-20T15:35:31.162Z,28.62
2019-06-20T15:37:59.641Z,28.35
2019-06-20T15:40:36.892Z,28.32
2019-06-20T15:43:05.341Z,28.30
2019-06-20T15:45:33.759Z,28.24
2019-06-20T15:48:02.220Z,28.33
2019-06-20T15:50:30.635Z,28.40
2019-06-20T15:52:59.062Z,28.43
2019-06-20T15:55:27.475Z,28.40
2019-06-20T15:57:56.073Z,28.25
2019-06-20T16:00:25.561Z,28.53
2019-06-20T16:03:05.928Z,28.45
2019-06-20T16:05:24.109Z,28.18
2019-06-20T16:07:52.558Z,27.93
2019-06-20T16:10:29.673Z,27.59
2019-06-20T16:13:10.086Z,27.62
2019-06-20T16:15:38.496Z,28.02
2019-06-20T16:18:10.012Z,27.92
2019-06-20T16:20:38.446Z,27.79
2019-06-20T16:23:06.891Z,28.03
2019-06-20T16:25:35.325Z,28.09
2019-06-20T16:28:03.787Z,27.55
2019-06-20T16:30:33.911Z,27.79
2019-06-20T16:33:02.444Z,27.72
2019-06-20T16:35:30.878Z,27.34
2019-06-20T16:38:00.860Z,27.08
2019-06-20T16:40:32.309Z,27.32
2019-06-20T16:43:00.741Z,27.51
2019-06-20T16:45:31.295Z,27.21
2019-06-20T16:48:01.316Z,27.66
2019-06-20T16:50:34.940Z,27.83
2019-06-20T16:53:03.248Z,27.76
2019-06-20T16:55:33.613Z,27.92
2019-06-20T16:58:05.596Z,27.86
2019-06-20T17:00:40.073Z,27.93
2019-06-20T17:03:08.653Z,27.46
2019-06-20T17:05:38.637Z,27.37
2019-06-20T17:08:07.112Z,27.24
2019-06-20T17:10:39.440Z,27.49
2019-06-20T17:13:14.021Z,27.55
2019-06-20T17:15:42.449Z,27.94
2019-06-20T17:18:10.856Z,28.27
2019-06-20T17:20:39.347Z,27.53
2019-06-20T17:23:11.888Z,27.49
2019-06-20T17:25:40.327Z,26.91
2019-06-20T17:28:14.528Z,26.76
2019-06-20T17:30:42.998Z,26.85
2019-06-20T17:33:11.446Z,27.20
2019-06-20T17:35:39.867Z,27.66
2019-06-20T17:38:08.335Z,28.05
2019-06-20T17:40:36.922Z,28.09
2019-06-20T17:43:05.373Z,28.02
2019-06-20T17:45:42.461Z,27.80
2019-06-20T17:48:16.883Z,27.89
2019-06-20T17:50:45.303Z,27.76
2019-06-20T17:53:13.736Z,27.51
2019-06-20T17:55:42.582Z,27.46
2019-06-20T17:58:19.417Z,27.29
2019-06-20T18:00:45.186Z,27.31
2019-06-20T18:03:13.659Z,27.46
2019-06-20T18:05:42.442Z,27.48
2019-06-20T18:08:15.057Z,27.66
2019-06-20T18:10:41.017Z,27.09
2019-06-20T18:13:09.450Z,26.51
2019-06-20T18:15:37.872Z,26.53
2019-06-20T18:18:06.334Z,26.55
2019-06-20T18:20:34.732Z,26.34
2019-06-20T18:23:03.209Z,26.17
2019-06-20T18:25:31.900Z,25.90
2019-06-20T18:28:01.271Z,25.66
2019-06-20T18:30:41.359Z,25.27
2019-06-20T18:33:11.493Z,24.66
2019-06-20T18:35:39.876Z,24.66
2019-06-20T18:38:08.298Z,24.70
2019-06-20T18:40:36.943Z,24.82
2019-06-20T18:43:05.474Z,24.46
2019-06-20T18:45:33.963Z,24.35
2019-06-20T18:48:05.504Z,24.31
2019-06-20T18:50:34.185Z,24.27
2019-06-20T18:53:02.664Z,24.15
2019-06-20T18:55:31.130Z,24.11
2019-06-20T18:57:59.628Z,24.14
2019-06-20T19:00:34.648Z,24.31
2019-06-20T19:02:58.997Z,24.40
2019-06-20T19:05:31.884Z,24.35
2019-06-20T19:08:00.293Z,24.62
2019-06-20T19:10:29.043Z,24.75
2019-06-20T19:12:57.620Z,24.86
2019-06-20T19:15:29.351Z,24.88
2019-06-20T19:17:57.904Z,24.62
2019-06-20T19:20:29.826Z,24.65
2019-06-20T19:22:58.645Z,24.66
2019-06-20T19:25:27.147Z,24.77
2019-06-20T19:27:55.669Z,24.68
2019-06-20T19:30:41.922Z,24.68
2019-06-20T19:33:11.301Z,24.69
2019-06-20T19:35:39.907Z,24.77
2019-06-20T19:38:08.330Z,24.72
2019-06-20T19:40:40.097Z,24.79
2019-06-20T19:43:08.578Z,24.75
2019-06-20T19:45:37.381Z,24.43
2019-06-20T19:48:06.180Z,24.61
2019-06-20T19:50:34.686Z,24.70
2019-06-20T19:53:03.222Z,24.47
2019-06-20T19:55:31.943Z,24.45
2019-06-20T19:58:00.361Z,24.40
2019-06-20T20:00:29.067Z,24.21
2019-06-20T20:02:57.824Z,23.99
2019-06-20T20:05:26.321Z,23.89
2019-06-20T20:07:58.469Z,23.11
2019-06-20T20:10:47.954Z,22.89
2019-06-20T20:13:17.518Z,22.71
2019-06-20T20:15:46.578Z,22.52
2019-06-20T20:18:16.036Z,22.19
2019-06-20T20:20:47.534Z,21.78
2019-06-20T20:23:16.195Z,21.54
2019-06-20T20:25:44.802Z,21.52
2019-06-20T20:28:13.268Z,21.55
2019-06-20T20:30:41.857Z,21.32
2019-06-20T20:33:10.358Z,20.94
2019-06-20T20:35:41.035Z,20.77
2019-06-20T20:38:09.533Z,20.82
2019-06-20T20:40:37.956Z,20.89
2019-06-20T20:43:06.715Z,20.76
2019-06-20T20:45:35.234Z,20.75
2019-06-20T20:48:03.669Z,20.93
2019-06-20T20:50:40.822Z,20.88
2019-06-20T20:53:09.225Z,20.94
2019-06-20T20:55:37.644Z,21.05
2019-06-20T20:58:06.061Z,20.81
2019-06-20T21:00:40.641Z,20.75
2019-06-20T21:03:09.153Z,20.44
2019-06-20T21:05:50.705Z,20.40
2019-06-20T21:08:07.779Z,20.55
2019-06-20T21:10:36.223Z,20.36
2019-06-20T21:13:04.702Z,20.32
2019-06-20T21:15:33.113Z,20.43
2019-06-20T21:18:01.532Z,20.32
2019-06-20T21:20:29.978Z,20.52
2019-06-20T21:22:58.413Z,20.73
2019-06-20T21:25:26.903Z,20.56
2019-06-20T21:27:55.297Z,20.72
2019-06-20T21:30:24.081Z,20.68
2019-06-20T21:32:52.508Z,20.53
2019-06-20T21:35:20.943Z,20.69
2019-06-20T21:37:49.366Z,20.73
2019-06-20T21:40:18.753Z,20.70
2019-06-20T21:42:47.179Z,20.67
2019-06-20T21:45:16.773Z,20.60
2019-06-20T21:47:45.224Z,20.46
2019-06-20T21:50:14.993Z,20.28
2019-06-20T21:52:43.403Z,20.29
2019-06-20T21:55:12.179Z,20.29
2019-06-20T21:57:40.598Z,20.37
2019-06-20T22:00:25.342Z,20.29
2019-06-20T22:02:53.929Z,20.43
2019-06-20T22:05:22.533Z,20.17
2019-06-20T22:07:51.037Z,20.15
2019-06-20T22:10:19.782Z,20.15
2019-06-20T22:12:48.204Z,20.13
2019-06-20T22:15:16.791Z,20.17
2019-06-20T22:17:45.230Z,20.04
2019-06-20T22:20:15.180Z,20.03
2019-06-20T22:22:43.646Z,19.82
2019-06-20T22:25:12.605Z,19.92
2019-06-20T22:27:41.097Z,20.02
2019-06-20T22:30:13.714Z,19.84
2019-06-20T22:32:42.177Z,20.08
2019-06-20T22:35:11.729Z,19.92
2019-06-20T22:37:41.607Z,19.77
2019-06-20T22:40:12.571Z,19.53
2019-06-20T22:42:41.009Z,19.42
2019-06-20T22:45:10.956Z,19.40
2019-06-20T22:47:39.378Z,19.41
2019-06-20T22:50:08.932Z,19.44
2019-06-20T22:52:38.308Z,19.28
2019-06-20T22:55:06.947Z,19.41
2019-06-20T22:57:35.388Z,19.38
2019-06-20T23:00:07.188Z,19.28
2019-06-20T23:02:35.637Z,19.27
2019-06-20T23:05:05.521Z,19.28
2019-06-20T23:07:33.973Z,19.24
2019-06-20T23:10:25.026Z,19.11
2019-06-20T23:12:55.173Z,19.01
2019-06-20T23:15:23.769Z,18.95
2019-06-20T23:17:52.285Z,19.10
2019-06-20T23:20:20.964Z,19.22
2019-06-20T23:22:49.374Z,19.11
2019-06-20T23:25:18.155Z,19.04
2019-06-20T23:27:46.621Z,19.06
2019-06-20T23:30:15.885Z,19.14
2019-06-20T23:32:44.462Z,19.26
2019-06-20T23:35:12.966Z,19.29
2019-06-20T23:37:41.388Z,19.20
2019-06-20T23:40:11.087Z,19.00
2019-06-20T23:42:39.481Z,19.17
2019-06-20T23:45:09.458Z,19.01
2019-06-20T23:47:37.949Z,18.98
2019-06-20T23:50:07.228Z,19.09
2019-06-20T23:52:45.877Z,19.11
2019-06-20T23:55:14.319Z,19.12
2019-06-20T23:57:42.721Z,19.09
